Time;durP1;ratioP1;P1;durP2;ratioP2;P2;SDS_P1;SDS_P2;PMS_P1;PMS_P2;Temp;Humidity;BMP_temperature;BMP_pressure;BME280_temperature;BME280_humidity;BME280_pressure;Samples;Min_cycle;Max_cycle;Signal;HPM_P1;HPM_P2
2023/10/28 00:00:17;;;;;;;1.25;1.23;;;12.70;99.90;;;12.63;98.64;98836.09;4822785;28;25022;-69
2023/10/28 00:02:39;;;;;;;1.00;1.00;;;12.60;99.90;;;12.67;98.56;98832.16;4838119;28;24433;-69
2023/10/28 00:05:01;;;;;;;1.50;1.00;;;12.60;99.90;;;12.69;98.65;98833.59;4868208;28;24866;-69
2023/10/28 00:07:23;;;;;;;1.60;1.13;;;12.50;99.90;;;12.72;98.59;98830.66;4833432;28;24483;-69
2023/10/28 00:09:45;;;;;;;1.60;1.00;;;12.60;99.90;;;12.69;98.49;98830.19;4870340;28;24500;-69
2023/10/28 00:12:12;;;;;;;1.20;1.02;;;12.60;99.90;;;12.62;98.83;98834.44;4868994;28;24459;-69
2023/10/28 00:14:34;;;;;;;1.30;1.10;;;12.60;99.90;;;12.63;98.61;98836.88;4868457;28;25014;-69
2023/10/28 00:16:57;;;;;;;1.00;1.00;;;12.50;99.90;;;12.67;99.12;98835.56;4838740;28;24929;-69
2023/10/28 00:19:20;;;;;;;1.00;1.00;;;12.50;99.90;;;12.61;99.47;98832.78;4829654;28;24559;-69
2023/10/28 00:21:42;;;;;;;1.20;1.10;;;12.50;99.90;;;12.59;100.00;98830.34;4867397;28;24494;-70
2023/10/28 00:24:05;;;;;;;1.48;1.08;;;12.50;99.90;;;12.52;100.00;98833.81;4836272;28;24447;-69
2023/10/28 00:26:27;;;;;;;1.20;1.20;;;12.40;99.90;;;12.53;100.00;98835.44;4832242;28;24570;-70
2023/10/28 00:28:49;;;;;;;1.30;1.20;;;12.40;99.90;;;12.57;100.00;98836.72;4882052;28;24445;-70
2023/10/28 00:31:19;;;;;;;1.67;1.40;;;12.40;99.90;;;12.51;100.00;98837.41;4836830;28;24539;-69
2023/10/28 00:33:41;;;;;;;1.50;1.40;;;12.40;99.90;;;12.52;100.00;98833.81;4827824;28;24480;-68
2023/10/28 00:36:09;;;;;;;1.40;1.30;;;12.40;99.90;;;12.48;100.00;98841.16;4826266;28;24539;-68
2023/10/28 00:38:31;;;;;;;1.20;1.20;;;12.40;99.90;;;12.54;100.00;98842.31;4829997;28;24453;-69
2023/10/28 00:40:52;;;;;;;1.10;1.10;;;12.40;99.90;;;12.52;100.00;98834.63;4824399;28;24452;-68
2023/10/28 00:43:14;;;;;;;1.30;1.30;;;12.40;99.90;;;12.51;100.00;98842.63;4834497;28;24471;-69
2023/10/28 00:45:40;;;;;;;1.20;1.20;;;12.40;99.90;;;12.46;100.00;98843.94;4835801;28;20790;-70
2023/10/28 00:48:02;;;;;;;1.00;1.00;;;12.30;99.90;;;12.50;100.00;98841.00;4833377;28;24566;-70
2023/10/28 00:50:24;;;;;;;1.23;1.13;;;12.40;99.90;;;12.48;100.00;98854.22;4871504;28;24449;-70
2023/10/28 00:52:50;;;;;;;1.25;1.00;;;12.40;99.90;;;12.48;100.00;98852.44;4868314;28;24495;-70
2023/10/28 00:55:14;;;;;;;0.80;0.80;;;12.40;99.90;;;12.48;100.00;98861.28;4830305;28;24440;-70
2023/10/28 00:57:42;;;;;;;0.90;0.90;;;12.30;99.90;;;12.48;100.00;98858.66;4850728;28;24448;-70
2023/10/28 01:00:08;;;;;;;1.10;0.90;;;12.30;99.90;;;12.52;100.00;98865.19;4842778;28;24558;-69
2023/10/28 01:02:30;;;;;;;1.33;0.80;;;12.30;99.90;;;12.57;100.00;98878.59;4831461;28;24478;-71
2023/10/28 01:04:52;;;;;;;0.70;0.60;;;12.40;99.90;;;12.60;100.00;98878.28;4830796;28;25061;-70
2023/10/28 01:07:14;;;;;;;1.20;0.90;;;12.40;99.90;;;12.59;100.00;98884.47;4868424;28;24449;-68
2023/10/28 01:09:47;;;;;;;0.60;0.60;;;12.40;99.90;;;12.56;100.00;98887.44;4846844;28;24444;-68
2023/10/28 01:12:09;;;;;;;1.05;0.70;;;12.40;99.90;;;12.54;100.00;98897.25;4834120;28;24441;-68
2023/10/28 01:14:31;;;;;;;0.70;0.70;;;12.40;99.90;;;12.54;100.00;98894.63;4847537;28;24519;-69
2023/10/28 01:16:53;;;;;;;0.60;0.60;;;12.40;99.90;;;12.55;100.00;98898.88;4846354;28;24457;-69
2023/10/28 01:19:15;;;;;;;0.70;0.70;;;12.40;99.90;;;12.53;100.00;98903.44;4860044;28;24452;-69
2023/10/28 01:21:40;;;;;;;0.70;0.70;;;12.40;99.90;;;12.58;100.00;98906.41;4865023;28;24455;-68
2023/10/28 01:24:02;;;;;;;0.60;0.60;;;12.40;99.90;;;12.57;100.00;98913.41;4833898;28;20766;-66
2023/10/28 01:26:27;;;;;;;0.60;0.60;;;12.40;99.90;;;12.49;100.00;98897.72;4846692;28;24440;-68
2023/10/28 01:28:49;;;;;;;0.50;0.50;;;12.40;99.90;;;12.52;100.00;98901.81;4822037;28;24540;-68
2023/10/28 01:31:11;;;;;;;0.90;0.60;;;12.40;99.90;;;12.54;100.00;98905.91;4817696;28;24488;-68
2023/10/28 01:33:33;;;;;;;0.70;0.50;;;12.40;99.90;;;12.56;100.00;98896.09;4829028;28;24440;-68
2023/10/28 01:35:55;;;;;;;0.50;0.50;;;12.40;99.90;;;12.50;100.00;98904.59;4835970;28;24436;-69
2023/10/28 01:38:17;;;;;;;0.50;0.50;;;12.40;99.90;;;12.48;100.00;98900.53;4826719;28;24441;-68
2023/10/28 01:40:39;;;;;;;0.40;0.40;;;12.40;99.90;;;12.48;100.00;98896.09;4845632;28;25596;-70
2023/10/28 01:43:01;;;;;;;1.10;0.40;;;12.30;99.90;;;12.52;100.00;98897.41;4831197;28;24518;-67
2023/10/28 01:45:23;;;;;;;0.90;0.40;;;12.40;99.90;;;12.54;98.44;98899.84;4822102;28;24437;-71
2023/10/28 01:47:45;;;;;;;1.30;0.40;;;12.40;99.90;;;12.43;98.33;98904.44;4826985;28;24501;-65
2023/10/28 01:50:11;;;;;;;0.70;0.50;;;12.30;99.90;;;12.33;98.86;98903.78;4833736;28;24475;-69
2023/10/28 01:52:34;;;;;;;2.50;0.60;;;12.30;99.90;;;12.28;99.59;98907.88;4832306;28;24444;-67
2023/10/28 01:54:56;;;;;;;1.00;0.50;;;12.20;99.90;;;12.31;99.35;98907.53;4830836;28;24535;-70
2023/10/28 01:57:18;;;;;;;0.90;0.50;;;12.20;99.90;;;12.29;99.09;98902.47;4835409;28;24495;-68
2023/10/28 01:59:40;;;;;;;0.50;0.50;;;12.20;99.90;;;12.36;98.34;98915.72;4858114;28;24488;-70
2023/10/28 02:02:02;;;;;;;0.50;0.50;;;12.20;99.90;;;12.32;98.51;98907.38;4867596;28;24450;-69
2023/10/28 02:04:25;;;;;;;0.70;0.60;;;12.20;99.90;;;12.37;96.59;98910.31;4823416;28;24455;-71
2023/10/28 02:06:49;;;;;;;0.50;0.50;;;12.20;99.90;;;12.30;96.64;98909.34;4817642;28;24604;-70
2023/10/28 02:09:12;;;;;;;1.08;0.50;;;12.20;99.90;;;12.23;96.92;98920.59;4826377;28;24508;-70
2023/10/28 02:11:39;;;;;;;0.70;0.60;;;12.10;99.90;;;12.23;96.65;98928.44;4818430;28;24460;-71
2023/10/28 02:14:01;;;;;;;0.60;0.60;;;12.10;99.90;;;12.27;95.71;98922.72;4830623;28;24494;-69
2023/10/28 02:16:23;;;;;;;0.80;0.63;;;12.10;99.90;;;12.29;95.52;98928.63;4828729;28;24862;-70
2023/10/28 02:18:47;;;;;;;0.90;0.60;;;12.10;99.90;;;12.28;94.49;98923.56;4827762;28;25130;-69
2023/10/28 02:21:09;;;;;;;0.60;0.60;;;12.10;99.90;;;12.30;94.51;98930.25;4830489;28;20802;-68
2023/10/28 02:23:31;;;;;;;0.60;0.60;;;12.10;99.90;;;12.39;92.95;98923.25;4830044;28;20766;-67
2023/10/28 02:25:53;;;;;;;0.57;0.57;;;12.20;99.90;;;12.36;91.95;98924.38;4833767;28;24868;-69
2023/10/28 02:28:15;;;;;;;0.60;0.60;;;12.20;99.90;;;12.36;92.83;98919.16;4834789;28;24854;-69
2023/10/28 02:30:40;;;;;;;0.70;0.50;;;12.20;99.90;;;12.43;91.44;98917.53;4863869;28;24543;-68
2023/10/28 02:33:02;;;;;;;1.00;0.80;;;12.30;99.90;;;12.43;90.86;98924.53;4866646;28;24820;-68
2023/10/28 02:35:24;;;;;;;0.80;0.65;;;12.30;99.90;;;12.43;89.91;98920.13;4822479;28;24449;-68
2023/10/28 02:37:46;;;;;;;0.80;0.80;;;12.30;99.90;;;12.40;89.53;98925.69;4814878;28;24518;-69
2023/10/28 02:40:09;;;;;;;0.60;0.60;;;12.30;99.90;;;12.40;89.71;98930.91;4859320;28;24487;-68
2023/10/28 02:42:30;;;;;;;0.70;0.60;;;12.30;99.90;;;12.39;89.83;98924.03;4834458;28;24440;-68
2023/10/28 02:44:52;;;;;;;1.50;0.80;;;12.20;99.90;;;12.34;89.10;98913.25;4842808;28;24472;-70
2023/10/28 02:47:15;;;;;;;1.80;0.80;;;12.20;99.90;;;12.29;89.55;98919.94;4817577;28;24425;-70
2023/10/28 02:49:37;;;;;;;0.90;0.80;;;12.20;99.90;;;12.23;90.22;98917.97;4823604;28;24452;-70
2023/10/28 02:51:59;;;;;;;0.70;0.70;;;12.10;99.90;;;12.22;91.07;98916.38;4815853;28;25018;-69
2023/10/28 02:54:21;;;;;;;0.90;0.60;;;12.10;99.90;;;12.26;91.61;98926.34;4830318;28;24897;-70
2023/10/28 02:56:43;;;;;;;0.90;0.70;;;12.10;99.90;;;12.25;92.43;98927.31;4849596;28;24590;-70
2023/10/28 02:59:06;;;;;;;1.00;0.70;;;12.10;99.90;;;12.24;93.55;98925.69;4831372;28;24476;-70
2023/10/28 03:01:28;;;;;;;0.60;0.60;;;12.10;99.90;;;12.24;94.96;98923.06;4817301;28;24443;-70
2023/10/28 03:03:50;;;;;;;1.70;0.80;;;12.10;99.90;;;12.20;95.51;98919.13;4827782;28;25227;-70
2023/10/28 03:06:12;;;;;;;1.23;0.90;;;12.10;99.90;;;12.14;96.38;98922.38;4819852;28;24483;-70
2023/10/28 03:08:34;;;;;;;1.15;0.70;;;12.10;99.90;;;12.04;97.20;98923.50;4863231;28;24444;-70
2023/10/28 03:10:56;;;;;;;0.70;0.70;;;12.00;99.90;;;12.02;97.01;98923.69;4837103;28;24476;-70
2023/10/28 03:13:18;;;;;;;0.80;0.70;;;11.90;99.90;;;12.05;97.95;98919.94;4830331;28;24459;-70
2023/10/28 03:15:40;;;;;;;1.80;0.80;;;11.90;99.90;;;12.01;98.02;98922.03;4832558;28;25085;-70
2023/10/28 03:18:02;;;;;;;0.90;0.70;;;11.90;99.90;;;11.96;97.74;98924.31;4868477;28;24571;-70
2023/10/28 03:20:24;;;;;;;0.70;0.70;;;11.90;99.90;;;11.90;98.46;98927.59;4847677;28;24922;-70
2023/10/28 03:22:47;;;;;;;0.68;0.68;;;11.80;99.90;;;11.83;99.36;98929.19;4820893;28;24466;-70
2023/10/28 03:25:09;;;;;;;0.80;0.80;;;11.80;99.90;;;11.84;99.55;98928.19;4835522;28;24502;-70
2023/10/28 03:27:32;;;;;;;0.90;0.60;;;11.80;99.90;;;11.87;99.40;98930.50;4863843;28;24479;-70
2023/10/28 03:29:54;;;;;;;1.90;0.80;;;11.80;99.90;;;11.82;99.60;98924.13;4837127;28;24917;-69
2023/10/28 03:32:15;;;;;;;1.40;0.80;;;11.70;99.90;;;11.93;99.84;98927.25;4869578;28;25180;-70
2023/10/28 03:34:37;;;;;;;0.90;0.90;;;11.80;99.90;;;11.88;99.46;98932.16;4822336;28;24519;-70
2023/10/28 03:36:59;;;;;;;0.80;0.80;;;11.80;99.90;;;11.89;99.86;98925.09;4851406;28;24426;-68
2023/10/28 03:39:21;;;;;;;1.50;0.70;;;11.80;99.90;;;11.91;99.52;98933.59;4852407;28;24455;-68
2023/10/28 03:41:45;;;;;;;1.02;0.90;;;11.80;99.90;;;11.92;99.22;98938.69;4849542;28;24444;-69
2023/10/28 03:44:07;;;;;;;1.00;0.90;;;11.80;99.90;;;11.91;99.06;98931.81;4863052;28;24982;-68
2023/10/28 03:46:28;;;;;;;1.67;1.00;;;11.80;99.90;;;11.95;98.75;98933.13;4837819;28;24479;-69
2023/10/28 03:48:51;;;;;;;1.55;1.00;;;11.80;99.90;;;12.00;98.92;98933.47;4865627;28;24464;-66
2023/10/28 03:51:12;;;;;;;0.77;0.77;;;11.80;99.90;;;11.94;99.69;98934.13;4819626;28;24435;-69
2023/10/28 03:53:34;;;;;;;2.20;1.00;;;11.80;99.90;;;11.83;99.65;98925.75;4832504;28;20876;-70
2023/10/28 03:55:57;;;;;;;1.60;0.80;;;11.90;99.90;;;11.79;100.00;98935.72;4834425;28;24914;-71
2023/10/28 03:58:19;;;;;;;2.00;1.17;;;11.80;99.90;;;11.87;100.00;98943.56;4815915;28;24492;-67
2023/10/28 04:00:41;;;;;;;1.17;1.00;;;11.80;99.90;;;11.89;100.00;98949.44;4835509;28;24467;-71
2023/10/28 04:03:03;;;;;;;1.35;1.10;;;11.80;99.90;;;11.85;100.00;98944.69;4837705;28;24436;-71
2023/10/28 04:05:25;;;;;;;1.30;1.10;;;11.80;99.90;;;11.82;100.00;98945.03;4849625;28;24450;-68
2023/10/28 04:07:47;;;;;;;1.10;1.00;;;11.80;99.90;;;11.86;100.00;98947.13;4828103;28;24506;-69
2023/10/28 04:10:09;;;;;;;0.98;0.88;;;11.80;99.90;;;11.91;100.00;98947.50;4837588;28;24436;-70
2023/10/28 04:12:32;;;;;;;3.00;1.00;;;11.80;99.90;;;11.90;100.00;98943.25;4866279;28;24531;-69
2023/10/28 04:14:54;;;;;;;2.50;1.00;;;11.80;99.90;;;11.92;100.00;98943.09;4829646;28;25065;-70
2023/10/28 04:17:16;;;;;;;2.42;1.10;;;11.80;99.90;;;11.93;100.00;98942.09;4830888;28;24535;-69
2023/10/28 04:19:38;;;;;;;2.00;1.10;;;11.80;99.90;;;11.82;100.00;98945.03;4868942;28;24442;-69
2023/10/28 04:22:00;;;;;;;4.60;1.40;;;11.70;99.90;;;11.84;100.00;98938.66;4836840;28;25048;-69
2023/10/28 04:24:23;;;;;;;1.02;1.00;;;11.70;99.90;;;11.90;100.00;98951.09;4833852;28;24522;-69
2023/10/28 04:26:45;;;;;;;1.48;1.15;;;11.80;99.90;;;11.91;100.00;98938.81;4851874;28;24842;-69
2023/10/28 04:29:07;;;;;;;1.10;1.00;;;11.80;99.90;;;11.82;100.00;98932.75;4863625;28;24456;-69
2023/10/28 04:31:29;;;;;;;2.13;1.27;;;11.70;99.90;;;11.80;100.00;98939.16;4868569;28;24491;-69
2023/10/28 04:33:52;;;;;;;2.28;1.33;;;11.70;99.90;;;11.69;100.00;98943.66;4860567;28;24475;-69
2023/10/28 04:36:14;;;;;;;3.38;1.30;;;11.70;99.90;;;11.78;100.00;98934.06;4860736;28;24437;-69
2023/10/28 04:38:40;;;;;;;1.90;1.10;;;11.70;99.90;;;11.74;100.00;98937.13;4835520;28;24541;-69
2023/10/28 04:41:02;;;;;;;2.37;1.10;;;11.70;99.90;;;11.81;100.00;98943.38;4825030;28;24909;-69
2023/10/28 04:43:24;;;;;;;1.40;1.10;;;11.70;99.90;;;11.84;100.00;98946.47;4853950;28;24978;-69
2023/10/28 04:45:46;;;;;;;1.83;1.10;;;11.70;99.90;;;11.82;100.00;98948.44;4850789;28;24471;-70
2023/10/28 04:48:10;;;;;;;2.80;1.50;;;11.70;99.90;;;11.80;100.00;98945.16;4862821;28;24807;-69
2023/10/28 04:50:32;;;;;;;1.40;1.30;;;11.70;99.90;;;11.77;100.00;98947.28;4866236;28;24439;-71
2023/10/28 04:52:54;;;;;;;2.00;1.20;;;11.70;99.90;;;11.82;100.00;98951.06;4837117;28;24499;-69
2023/10/28 04:55:16;;;;;;;1.83;1.38;;;11.70;99.90;;;11.78;100.00;98934.06;4849076;28;25091;-69
2023/10/28 04:57:38;;;;;;;2.72;1.23;;;11.70;99.90;;;11.86;100.00;98946.34;4859355;28;24440;-69
2023/10/28 05:00:00;;;;;;;1.80;1.10;;;11.70;99.90;;;11.90;100.00;98942.44;4847648;28;24455;-69
2023/10/28 05:02:22;;;;;;;1.70;1.30;;;11.80;99.90;;;11.84;100.00;98943.06;4832220;28;24444;-70
2023/10/28 05:04:44;;;;;;;2.67;1.17;;;11.70;99.90;;;11.86;99.95;98948.97;4835974;28;24531;-70
2023/10/28 05:07:06;;;;;;;2.40;1.15;;;11.70;99.90;;;11.92;100.00;98937.88;4837411;28;24432;-70
2023/10/28 05:09:28;;;;;;;1.52;1.40;;;11.80;99.90;;;11.93;99.61;98942.91;4837664;28;24451;-69
2023/10/28 05:11:54;;;;;;;1.67;1.42;;;11.80;99.90;;;11.98;99.75;98939.84;4869165;28;24535;-69
2023/10/28 05:14:16;;;;;;;1.48;1.38;;;11.80;99.90;;;12.00;100.00;98928.25;4868630;28;24447;-69
2023/10/28 05:16:38;;;;;;;1.60;1.10;;;11.90;99.90;;;11.95;99.33;98921.84;4852950;28;24883;-70
2023/10/28 05:19:00;;;;;;;2.28;1.30;;;11.80;99.90;;;11.92;99.33;98925.63;4832632;28;25049;-70
2023/10/28 05:21:22;;;;;;;1.63;1.50;;;11.80;99.90;;;11.87;99.54;98929.69;4834654;28;24531;-69
2023/10/28 05:23:44;;;;;;;1.75;1.30;;;11.80;99.90;;;11.85;99.54;98923.78;4834572;28;24815;-70
2023/10/28 05:26:06;;;;;;;2.00;1.58;;;11.80;99.90;;;11.83;99.99;98926.56;4858959;28;24474;-70
2023/10/28 05:28:28;;;;;;;3.10;1.48;;;11.70;99.90;;;11.90;99.47;98937.22;4847806;28;24440;-70
2023/10/28 05:30:50;;;;;;;1.20;1.10;;;11.80;99.90;;;11.95;99.59;98933.13;4832157;28;24542;-69
2023/10/28 05:33:13;;;;;;;3.50;1.40;;;11.80;99.90;;;11.94;98.82;98938.53;4834186;28;24446;-69
2023/10/28 05:35:35;;;;;;;3.45;1.40;;;11.80;99.90;;;11.91;98.70;98939.66;4835852;28;24450;-69
2023/10/28 05:37:58;;;;;;;2.30;1.30;;;11.80;99.90;;;11.83;99.25;98947.47;4831515;28;24889;-70
2023/10/28 05:40:20;;;;;;;1.73;1.30;;;11.80;99.90;;;11.80;100.00;98958.22;4836080;28;25041;-69
2023/10/28 05:42:42;;;;;;;2.50;1.30;;;11.80;99.90;;;11.79;100.00;98945.34;4859849;28;25437;-70
2023/10/28 05:45:07;;;;;;;3.03;1.30;;;11.70;99.90;;;11.77;100.00;98942.88;4836091;28;25032;-69
2023/10/28 05:47:29;;;;;;;2.30;1.30;;;11.70;99.90;;;11.78;100.00;98947.13;4829095;28;25067;-68
2023/10/28 05:49:51;;;;;;;1.75;1.17;;;11.70;99.90;;;11.81;100.00;98954.66;4832784;28;24437;-69
2023/10/28 05:52:18;;;;;;;1.92;1.20;;;11.70;99.90;;;11.88;99.88;98960.06;4832856;28;24499;-70
2023/10/28 05:54:40;;;;;;;2.58;1.33;;;11.70;99.90;;;11.85;99.61;98963.81;4832757;28;20787;-69
2023/10/28 05:57:03;;;;;;;1.80;1.20;;;11.70;99.90;;;11.84;99.89;98967.38;4830438;28;24551;-69
2023/10/28 05:59:25;;;;;;;1.97;1.20;;;11.70;99.90;;;11.88;100.00;98965.28;4835215;28;24858;-69
2023/10/28 06:01:46;;;;;;;2.90;1.13;;;11.80;99.90;;;11.85;100.00;98966.44;4833867;28;24822;-69
2023/10/28 06:04:09;;;;;;;1.63;1.00;;;11.80;99.90;;;11.91;99.47;98957.94;4828044;28;24440;-69
2023/10/28 06:06:31;;;;;;;1.90;1.10;;;11.80;99.90;;;11.87;98.89;98963.66;4818198;28;24531;-69
2023/10/28 06:08:54;;;;;;;1.20;1.10;;;11.80;99.90;;;11.91;99.68;98959.72;4826530;28;24539;-69
2023/10/28 06:11:15;;;;;;;1.77;1.50;;;11.80;99.90;;;11.82;99.80;98961.50;4849851;28;24517;-69
2023/10/28 06:13:37;;;;;;;1.92;1.20;;;11.80;99.90;;;11.86;99.70;98975.09;4831476;28;24495;-66
2023/10/28 06:15:59;;;;;;;2.45;1.40;;;11.80;99.90;;;11.90;98.99;98972.00;4866928;28;25310;-69
2023/10/28 06:18:21;;;;;;;1.65;1.40;;;11.80;99.90;;;11.88;99.32;98968.72;4835620;28;24540;-68
2023/10/28 06:20:46;;;;;;;2.22;1.00;;;11.80;99.90;;;11.86;99.55;98970.66;4828735;28;25000;-69
2023/10/28 06:23:08;;;;;;;2.72;1.38;;;11.80;99.90;;;11.91;99.26;98984.06;4853265;28;24488;-69
2023/10/28 06:25:30;;;;;;;2.30;1.10;;;11.80;99.90;;;11.89;99.74;98982.59;4830063;28;24436;-70
2023/10/28 06:27:52;;;;;;;1.80;1.10;;;11.80;99.90;;;11.98;99.48;98986.88;4831991;28;24452;-69
2023/10/28 06:30:14;;;;;;;1.33;1.23;;;11.80;99.90;;;11.95;99.61;98990.63;4821798;28;24425;-65
2023/10/28 06:32:38;;;;;;;2.17;1.20;;;11.80;99.90;;;11.95;99.41;98990.63;4834834;28;24433;-70
2023/10/28 06:35:00;;;;;;;2.90;1.15;;;11.80;99.90;;;11.94;98.90;98994.22;4829242;28;24449;-71
2023/10/28 06:37:23;;;;;;;2.10;0.90;;;11.80;99.90;;;12.00;98.82;99006.66;4860629;28;24431;-68
2023/10/28 06:39:47;;;;;;;1.13;1.10;;;11.80;99.90;;;11.95;98.88;99006.31;4836629;28;24540;-70
2023/10/28 06:42:12;;;;;;;2.00;1.10;;;11.80;99.90;;;11.95;98.37;99000.25;4835889;28;24555;-70
2023/10/28 06:44:34;;;;;;;2.97;1.30;;;11.90;99.90;;;11.98;98.33;99011.22;4870704;28;25048;-70
2023/10/28 06:46:56;;;;;;;2.50;1.20;;;11.90;99.90;;;12.01;98.36;99008.28;4839675;28;24483;-70
2023/10/28 06:49:18;;;;;;;1.40;1.10;;;11.90;99.90;;;12.02;97.90;99012.53;4836995;28;24494;-70
2023/10/28 06:51:40;;;;;;;2.20;1.20;;;11.90;99.90;;;11.96;98.85;99013.19;4850661;28;24443;-70
2023/10/28 06:54:03;;;;;;;1.63;1.17;;;11.90;99.90;;;12.02;98.74;99020.38;4867198;28;24530;-67
2023/10/28 06:56:25;;;;;;;1.30;1.20;;;11.90;99.90;;;12.03;98.69;99029.84;4835265;28;24891;-70
2023/10/28 06:58:47;;;;;;;1.55;1.20;;;11.90;99.90;;;12.01;98.86;99029.19;4829314;28;24539;-70
2023/10/28 07:01:09;;;;;;;3.28;1.42;;;11.90;99.90;;;12.08;99.11;99035.44;4834651;28;24456;-71
2023/10/28 07:03:31;;;;;;;2.63;1.40;;;11.90;99.90;;;12.12;99.18;99038.53;4852576;28;24438;-71
2023/10/28 07:05:53;;;;;;;3.20;1.20;;;11.90;99.90;;;12.14;99.23;99045.25;4867505;28;24472;-70
2023/10/28 07:08:16;;;;;;;3.00;1.40;;;12.00;99.90;;;12.12;98.51;99046.38;4870226;28;24842;-70
2023/10/28 07:10:38;;;;;;;2.20;1.27;;;12.00;99.90;;;12.10;98.59;99048.34;4831060;28;24499;-70
2023/10/28 07:13:00;;;;;;;3.28;1.30;;;12.00;99.90;;;12.10;98.97;99048.34;4830707;28;24540;-69
2023/10/28 07:15:22;;;;;;;3.70;1.40;;;11.90;99.90;;;12.02;98.75;99050.94;4863335;28;24456;-70
2023/10/28 07:17:44;;;;;;;2.03;1.57;;;12.00;99.90;;;12.00;98.78;99051.09;4869721;28;24447;-70
2023/10/28 07:20:09;;;;;;;1.50;1.40;;;11.90;99.90;;;12.03;98.94;99049.97;4835001;28;24544;-69
2023/10/28 07:22:32;;;;;;;1.50;1.40;;;11.90;99.90;;;11.97;99.14;99051.41;4839223;28;24459;-70
2023/10/28 07:24:54;;;;;;;1.63;1.30;;;11.90;99.90;;;12.06;98.94;99053.06;4849407;28;25123;-70
2023/10/28 07:27:18;;;;;;;4.20;1.53;;;11.90;99.90;;;12.10;98.81;99046.56;4839492;28;24494;-70
2023/10/28 07:29:40;;;;;;;2.28;1.30;;;12.00;99.90;;;12.17;98.02;99050.19;4851719;28;24440;-70
2023/10/28 07:32:02;;;;;;;3.58;1.50;;;12.00;99.90;;;12.22;97.27;99058.34;4850278;28;24511;-71
2023/10/28 07:34:24;;;;;;;2.30;1.20;;;12.10;99.90;;;12.26;96.96;99057.09;4832227;28;24499;-70
2023/10/28 07:36:46;;;;;;;1.83;1.40;;;12.10;99.90;;;12.42;95.58;99057.13;4850003;28;25024;-70
2023/10/28 07:39:09;;;;;;;1.60;1.20;;;12.20;99.90;;;12.42;96.11;99061.50;4849439;28;24531;-69
2023/10/28 07:41:31;;;;;;;1.90;1.20;;;12.30;99.90;;;12.65;95.15;99064.38;4863726;28;24483;-70
2023/10/28 07:43:53;;;;;;;3.03;1.40;;;12.40;99.90;;;12.82;93.55;99066.81;4830710;28;24491;-69
2023/10/28 07:46:15;;;;;;;3.28;1.50;;;12.60;99.90;;;12.91;93.17;99070.25;4830037;28;25047;-70
2023/10/28 07:48:37;;;;;;;2.10;1.30;;;12.70;99.90;;;12.92;92.46;99077.97;4836883;28;24451;-70
2023/10/28 07:50:59;;;;;;;1.30;1.20;;;12.70;99.90;;;12.87;92.81;99080.25;4837009;28;24886;-70
2023/10/28 07:53:21;;;;;;;2.72;1.50;;;12.70;99.90;;;12.74;93.83;99090.38;4863932;28;24456;-70
2023/10/28 07:55:43;;;;;;;1.65;1.23;;;12.60;99.90;;;12.63;93.68;99082.81;4842698;28;24505;-70
2023/10/28 07:58:06;;;;;;;2.38;1.25;;;12.60;99.90;;;12.62;93.83;99086.44;4832914;28;24512;-70
2023/10/28 08:00:28;;;;;;;2.20;1.33;;;12.50;99.90;;;12.40;95.35;99093.06;4865514;28;24501;-70
2023/10/28 08:02:51;;;;;;;2.40;1.30;;;12.40;99.90;;;12.42;95.39;99098.97;4861326;28;25041;-70
2023/10/28 08:05:14;;;;;;;1.50;1.40;;;12.30;99.90;;;12.36;96.42;99096.97;4835191;28;24468;-71
2023/10/28 08:07:39;;;;;;;1.90;1.30;;;12.30;99.90;;;12.32;96.69;99100.06;4847056;28;24543;-70
2023/10/28 08:10:00;;;;;;;1.80;1.27;;;12.20;99.90;;;12.30;97.46;99102.03;4874977;28;24443;-70
2023/10/28 08:12:25;;;;;;;1.73;1.40;;;12.20;99.90;;;12.38;97.27;99110.72;4828818;28;24818;-70
2023/10/28 08:14:48;;;;;;;1.80;1.30;;;12.20;99.90;;;12.38;97.25;99118.56;4835494;28;24452;-71
2023/10/28 08:17:10;;;;;;;2.30;1.30;;;12.20;99.90;;;12.44;97.17;99120.53;4860862;28;24483;-69
2023/10/28 08:19:32;;;;;;;2.65;1.42;;;12.30;99.90;;;12.40;97.15;99115.78;4863149;28;24444;-70
2023/10/28 08:21:54;;;;;;;1.40;1.30;;;12.30;99.90;;;12.50;97.17;99118.28;4836415;28;24453;-70
2023/10/28 08:24:16;;;;;;;2.00;1.30;;;12.30;99.90;;;12.60;96.66;99126.81;4829933;28;24574;-70
2023/10/28 08:26:40;;;;;;;2.17;1.27;;;12.40;99.90;;;12.63;96.76;99129.91;4815746;28;24464;-70
2023/10/28 08:29:01;;;;;;;2.80;1.13;;;12.50;99.90;;;12.69;96.70;99133.72;4830996;28;24535;-70
2023/10/28 08:31:23;;;;;;;1.50;1.40;;;12.50;99.90;;;12.81;96.01;99129.81;4866564;28;24440;-70
2023/10/28 08:33:47;;;;;;;1.60;1.42;;;12.60;99.90;;;13.02;94.82;99130.16;4834196;28;24433;-71
2023/10/28 08:36:10;;;;;;;2.90;1.33;;;12.80;99.90;;;13.11;94.38;99134.47;4831063;28;24543;-70
2023/10/28 08:38:32;;;;;;;1.70;1.20;;;12.90;99.90;;;13.23;94.01;99130.53;4835916;28;24443;-71
2023/10/28 08:40:54;;;;;;;1.33;1.23;;;12.90;99.90;;;13.31;93.80;99132.34;4861802;28;24448;-69
2023/10/28 08:43:22;;;;;;;3.10;1.55;;;13.10;99.90;;;13.33;92.38;99135.63;4865742;28;24530;-71
2023/10/28 08:45:46;;;;;;;1.57;1.20;;;13.10;99.90;;;13.37;92.85;99132.53;4821901;28;24431;-71
2023/10/28 08:48:12;;;;;;;1.05;1.00;;;13.10;99.90;;;13.45;91.56;99142.16;4821821;28;25092;-72
2023/10/28 08:50:34;;;;;;;2.83;1.40;;;13.20;99.90;;;13.38;91.60;99131.53;4866645;28;24826;-69
2023/10/28 08:53:00;;;;;;;1.95;1.40;;;13.20;99.90;;;13.38;91.45;99133.31;4836691;28;24454;-69
2023/10/28 08:55:24;;;;;;;1.90;1.25;;;13.20;99.90;;;13.35;91.92;99139.72;4833220;28;25000;-69
2023/10/28 08:57:46;;;;;;;1.30;1.20;;;13.20;99.90;;;13.48;91.42;99128.75;4865276;28;24524;-69
2023/10/28 09:00:14;;;;;;;1.70;1.40;;;13.20;99.90;;;13.50;90.72;99134.66;4817550;28;24462;-69
2023/10/28 09:02:40;;;;;;;1.20;1.20;;;13.30;99.90;;;14.09;89.38;99130.75;4816220;28;25770;-69
2023/10/28 09:05:03;;;;;;;1.60;1.20;;;13.60;99.90;;;16.37;80.89;99143.72;4833851;28;24999;-69
2023/10/28 09:07:25;;;;;;;1.30;1.20;;;14.80;99.90;;;19.71;66.47;99139.69;4818393;28;24845;-70
2023/10/28 09:10:00;;;;;;;3.00;1.20;;;17.20;99.90;;;22.18;56.18;99140.44;4831848;28;24540;-71
2023/10/28 09:12:22;;;;;;;2.10;1.10;;;19.60;99.90;;;23.66;51.38;99143.19;4847980;28;24437;-70
2023/10/28 09:14:45;;;;;;;1.30;1.20;;;21.10;99.90;;;25.01;48.65;99144.53;4833916;28;24451;-70
2023/10/28 09:17:08;;;;;;;1.92;1.20;;;22.30;99.90;;;23.20;54.75;99134.25;4842338;28;24534;-72
2023/10/28 09:19:30;;;;;;;1.58;1.20;;;21.70;99.90;;;23.69;50.00;99136.59;4850143;28;24446;-69
2023/10/28 09:21:52;;;;;;;2.40;1.23;;;22.30;99.90;;;23.43;50.06;99142.31;4827964;28;24455;-69
2023/10/28 09:24:17;;;;;;;1.50;1.20;;;22.20;99.90;;;24.87;47.89;99140.53;4833892;28;24568;-70
2023/10/28 09:26:40;;;;;;;1.58;1.20;;;22.90;99.90;;;24.98;45.88;99138.88;4833663;28;24532;-70
2023/10/28 09:29:03;;;;;;;2.35;1.60;;;23.30;99.90;;;25.40;45.89;99137.47;4833978;28;24990;-70
2023/10/28 09:31:25;;;;;;;1.42;1.23;;;23.60;99.90;;;25.93;43.75;99134.34;4849019;28;25225;-71
2023/10/28 09:33:47;;;;;;;3.60;1.40;;;24.30;99.20;;;25.43;44.30;99129.00;4852890;28;24554;-71
2023/10/28 09:36:10;;;;;;;1.38;1.20;;;24.50;98.00;;;25.86;43.84;99129.16;4867153;28;24567;-73
2023/10/28 09:38:32;;;;;;;1.40;1.20;;;24.70;97.60;;;26.05;42.79;99132.34;4838029;28;24445;-70
2023/10/28 09:40:54;;;;;;;1.83;1.20;;;25.20;96.10;;;26.03;43.26;99134.47;4852083;28;24438;-69
2023/10/28 09:43:17;;;;;;;2.97;1.20;;;25.30;95.50;;;25.94;43.39;99122.56;4856313;28;25077;-69
2023/10/28 09:45:38;;;;;;;3.35;1.30;;;25.30;95.00;;;26.57;41.62;99125.59;4840801;28;25052;-70
2023/10/28 09:48:06;;;;;;;1.40;1.30;;;25.80;94.00;;;26.16;41.76;99142.16;4846545;28;25156;-71
2023/10/28 09:50:30;;;;;;;2.80;1.50;;;25.50;93.50;;;24.77;44.36;99123.53;4814811;28;24436;-69
2023/10/28 09:52:55;;;;;;;3.10;1.20;;;24.40;94.00;;;22.84;47.46;99120.03;4864074;28;25047;-66
2023/10/28 09:55:25;;;;;;;2.35;1.10;;;23.10;95.10;;;21.47;52.13;99118.81;4832218;28;24444;-68
2023/10/28 09:57:50;;;;;;;3.15;1.25;;;21.60;97.80;;;20.08;56.35;99112.53;4824735;28;25070;-65